createdAt,value
2022-10-09T00:00:18.764Z,72.63
2022-10-09T00:02:46.637Z,72.90
2022-10-09T00:05:14.537Z,72.56
2022-10-09T00:07:42.149Z,72.55
2022-10-09T00:10:09.730Z,72.80
2022-10-09T00:12:37.898Z,73.04
2022-10-09T00:15:05.583Z,72.98
2022-10-09T00:17:33.158Z,73.11
2022-10-09T00:20:01.084Z,72.50
2022-10-09T00:22:28.670Z,72.42
2022-10-09T00:24:56.803Z,73.19
2022-10-09T00:27:24.392Z,72.37
2022-10-09T00:29:51.974Z,72.71
2022-10-09T00:32:19.534Z,72.97
2022-10-09T00:34:47.126Z,72.66
2022-10-09T00:37:14.993Z,72.54
2022-10-09T00:39:42.549Z,72.21
2022-10-09T00:42:10.652Z,72.27
2022-10-09T00:44:38.264Z,72.70
2022-10-09T00:47:05.810Z,72.35
2022-10-09T00:49:33.915Z,72.23
2022-10-09T00:52:01.513Z,72.12
2022-10-09T00:54:29.048Z,72.06
2022-10-09T00:56:56.700Z,72.40
2022-10-09T00:59:24.247Z,72.69
2022-10-09T01:01:52.311Z,72.97
2022-10-09T01:04:20.422Z,72.93
2022-10-09T01:06:47.964Z,73.01
2022-10-09T01:09:15.542Z,72.60
2022-10-09T01:11:43.476Z,72.88
2022-10-09T01:14:11.596Z,72.89
2022-10-09T01:16:39.204Z,73.22
2022-10-09T01:19:06.779Z,73.30
2022-10-09T01:21:34.314Z,73.30
2022-10-09T01:24:02.160Z,73.12
2022-10-09T01:26:31.979Z,73.23
2022-10-09T01:28:59.530Z,72.93
2022-10-09T01:31:27.212Z,73.09
2022-10-09T01:33:54.857Z,73.40
2022-10-09T01:36:22.433Z,73.15
2022-10-09T01:38:50.374Z,72.83
2022-10-09T01:41:17.983Z,73.30
2022-10-09T01:43:45.549Z,73.82
2022-10-09T01:46:13.217Z,73.07
2022-10-09T01:48:40.837Z,73.12
2022-10-09T01:51:08.749Z,72.89
2022-10-09T01:53:36.288Z,73.35
2022-10-09T01:56:03.898Z,73.02
2022-10-09T01:58:31.447Z,73.20
2022-10-09T02:00:59.003Z,73.62
2022-10-09T02:03:26.933Z,73.88
2022-10-09T02:05:54.535Z,72.95
2022-10-09T02:08:22.122Z,73.56
2022-10-09T02:10:50.212Z,73.08
2022-10-09T02:13:17.760Z,73.17
2022-10-09T02:15:45.975Z,73.32
2022-10-09T02:18:13.634Z,73.19
2022-10-09T02:20:41.220Z,73.16
2022-10-09T02:23:08.842Z,73.04
2022-10-09T02:25:36.439Z,73.36
2022-10-09T02:28:04.426Z,73.01
2022-10-09T02:30:32.033Z,73.95
2022-10-09T02:32:59.617Z,73.41
2022-10-09T02:35:27.206Z,73.33
2022-10-09T02:37:54.786Z,73.94
2022-10-09T02:40:23.026Z,73.15
2022-10-09T02:42:50.823Z,73.45
2022-10-09T02:45:18.773Z,73.56
2022-10-09T02:47:46.333Z,73.60
2022-10-09T02:50:13.990Z,73.81
2022-10-09T02:52:42.129Z,73.70
2022-10-09T02:55:10.117Z,73.71
2022-10-09T02:57:37.753Z,73.83
2022-10-09T03:00:05.304Z,74.18
2022-10-09T03:02:32.967Z,73.88
2022-10-09T03:05:01.155Z,73.37
2022-10-09T03:07:28.692Z,73.91
2022-10-09T03:09:57.369Z,74.12
2022-10-09T03:12:24.889Z,73.80
2022-10-09T03:14:52.454Z,73.77
2022-10-09T03:17:20.572Z,74.20
2022-10-09T03:19:48.107Z,74.22
2022-10-09T03:22:15.652Z,74.15
2022-10-09T03:24:43.257Z,74.01
2022-10-09T03:27:10.784Z,74.46
2022-10-09T03:29:38.642Z,73.71
2022-10-09T03:32:06.317Z,73.85
2022-10-09T03:34:33.876Z,74.19
2022-10-09T03:37:01.397Z,74.28
2022-10-09T03:39:29.477Z,73.76
2022-10-09T03:41:57.064Z,73.62
2022-10-09T03:44:24.667Z,74.04
2022-10-09T03:46:52.668Z,73.89
2022-10-09T03:49:20.528Z,74.53
2022-10-09T03:51:48.082Z,74.56
2022-10-09T03:54:15.663Z,74.20
2022-10-09T03:56:43.183Z,74.21
2022-10-09T03:59:10.727Z,74.66
2022-10-09T04:01:38.613Z,74.58
2022-10-09T04:04:06.183Z,74.48
2022-10-09T04:06:34.314Z,74.58
2022-10-09T04:09:02.526Z,74.61
2022-10-09T04:11:30.071Z,74.71
2022-10-09T04:13:57.618Z,74.50
2022-10-09T04:16:25.310Z,74.40
2022-10-09T04:18:53.530Z,74.28
2022-10-09T04:21:21.037Z,74.53
2022-10-09T04:23:49.040Z,74.92
2022-10-09T04:26:16.588Z,74.30
2022-10-09T04:28:45.031Z,74.66
2022-10-09T04:31:13.278Z,75.03
2022-10-09T04:33:40.905Z,74.38
2022-10-09T04:36:08.439Z,74.34
2022-10-09T04:38:36.032Z,75.11
2022-10-09T04:41:03.609Z,74.29
2022-10-09T04:43:31.490Z,74.66
2022-10-09T04:45:59.138Z,74.49
2022-10-09T04:48:26.768Z,75.23
2022-10-09T04:50:54.337Z,74.06
2022-10-09T04:53:21.928Z,74.98
2022-10-09T04:55:50.097Z,74.40
2022-10-09T04:58:17.757Z,75.26
2022-10-09T05:00:45.390Z,74.69
2022-10-09T05:03:12.969Z,74.73
2022-10-09T05:05:40.925Z,74.55
2022-10-09T05:08:09.054Z,74.70
2022-10-09T05:10:36.620Z,74.58
2022-10-09T05:13:04.289Z,74.82
2022-10-09T05:15:32.001Z,74.61
2022-10-09T05:17:59.522Z,75.29
2022-10-09T05:20:27.703Z,74.78
2022-10-09T05:22:55.309Z,74.53
2022-10-09T05:25:22.851Z,74.85
2022-10-09T05:27:50.855Z,74.70
2022-10-09T05:30:18.431Z,74.82
2022-10-09T05:32:46.467Z,75.12
2022-10-09T05:35:14.219Z,74.38
2022-10-09T05:37:41.827Z,74.93
2022-10-09T05:40:09.365Z,74.48
2022-10-09T05:42:36.930Z,75.05
2022-10-09T05:45:04.890Z,74.82
2022-10-09T05:47:32.455Z,74.97
2022-10-09T05:50:00.434Z,74.93
2022-10-09T05:52:28.056Z,73.95
2022-10-09T05:54:57.179Z,74.07
2022-10-09T05:57:25.300Z,74.66
2022-10-09T05:59:52.879Z,74.04
2022-10-09T06:02:20.498Z,74.46
2022-10-09T06:04:48.087Z,74.46
2022-10-09T06:07:15.702Z,74.03
2022-10-09T06:09:43.593Z,74.17
2022-10-09T06:12:11.468Z,74.25
2022-10-09T06:14:39.026Z,74.40
2022-10-09T06:17:06.693Z,74.19
2022-10-09T06:19:34.323Z,73.89
2022-10-09T06:22:02.605Z,73.50
2022-10-09T06:24:30.155Z,73.94
2022-10-09T06:26:57.772Z,73.59
2022-10-09T06:29:25.488Z,73.36
2022-10-09T06:31:53.183Z,73.66
2022-10-09T06:34:20.999Z,73.16
2022-10-09T06:36:48.638Z,72.85
2022-10-09T06:39:16.210Z,73.30
2022-10-09T06:41:43.812Z,72.89
2022-10-09T06:44:16.025Z,72.79
2022-10-09T06:46:44.433Z,72.73
2022-10-09T06:49:12.062Z,72.65
2022-10-09T06:51:39.692Z,73.08
2022-10-09T06:54:08.833Z,72.79
2022-10-09T06:56:36.421Z,72.78
2022-10-09T06:59:04.527Z,72.45
2022-10-09T07:01:32.525Z,72.53
2022-10-09T07:04:00.222Z,72.24
2022-10-09T07:06:27.882Z,72.59
2022-10-09T07:08:55.488Z,72.25
2022-10-09T07:11:23.672Z,71.57
2022-10-09T07:13:51.320Z,71.72
2022-10-09T07:16:19.052Z,71.14
2022-10-09T07:18:46.761Z,71.15
2022-10-09T07:21:14.467Z,70.99
2022-10-09T07:23:42.706Z,70.75
2022-10-09T07:26:10.307Z,70.53
2022-10-09T07:28:38.014Z,70.03
2022-10-09T07:31:05.816Z,70.24
2022-10-09T07:33:33.562Z,70.28
2022-10-09T07:36:01.819Z,69.38
2022-10-09T07:38:29.972Z,69.14
2022-10-09T07:40:57.926Z,69.23
2022-10-09T07:43:25.660Z,69.10
2022-10-09T07:45:53.323Z,68.88
2022-10-09T07:48:20.969Z,68.54
2022-10-09T07:50:48.629Z,68.61
2022-10-09T07:53:16.332Z,68.59
2022-10-09T07:55:43.937Z,68.24
2022-10-09T07:58:11.655Z,68.00
2022-10-09T08:00:41.541Z,67.99
2022-10-09T08:03:09.323Z,67.78
2022-10-09T08:05:37.164Z,67.89
2022-10-09T08:08:04.859Z,67.82
2022-10-09T08:10:32.644Z,67.25
2022-10-09T08:13:00.983Z,67.28
2022-10-09T08:15:28.700Z,67.34
2022-10-09T08:17:56.547Z,66.73
2022-10-09T08:20:24.363Z,66.42
2022-10-09T08:22:52.595Z,66.03
2022-10-09T08:25:20.710Z,66.45
2022-10-09T08:27:48.549Z,65.62
2022-10-09T08:30:16.259Z,65.21
2022-10-09T08:32:44.121Z,63.93
2022-10-09T08:35:11.853Z,64.05
2022-10-09T08:37:40.382Z,63.87
2022-10-09T08:40:08.035Z,63.64
2022-10-09T08:42:35.805Z,63.32
2022-10-09T08:45:03.492Z,63.81
2022-10-09T08:47:31.215Z,63.05
2022-10-09T08:49:59.153Z,63.18
2022-10-09T08:52:27.293Z,63.94
2022-10-09T08:54:54.996Z,63.52
2022-10-09T08:57:22.967Z,63.60
2022-10-09T08:59:50.711Z,63.49
2022-10-09T09:02:19.123Z,63.27
2022-10-09T09:04:51.153Z,63.75
2022-10-09T09:07:21.667Z,63.61
2022-10-09T09:09:49.473Z,63.70
2022-10-09T09:12:17.234Z,63.35
2022-10-09T09:14:45.473Z,63.86
2022-10-09T09:17:13.260Z,63.17
2022-10-09T09:19:40.958Z,63.49
2022-10-09T09:22:08.806Z,63.86
2022-10-09T09:24:36.613Z,63.33
2022-10-09T09:27:06.575Z,63.05
2022-10-09T09:29:34.316Z,62.75
2022-10-09T09:32:02.295Z,62.71
2022-10-09T09:34:30.231Z,61.79
2022-10-09T09:36:58.252Z,61.88
2022-10-09T09:42:14.584Z,61.12
2022-10-09T09:44:42.352Z,61.16
2022-10-09T09:47:10.122Z,60.73
2022-10-09T09:49:38.396Z,60.07
2022-10-09T09:52:06.270Z,59.80
2022-10-09T09:54:34.105Z,59.37
2022-10-09T09:57:21.872Z,58.90
2022-10-09T09:59:50.713Z,57.35
2022-10-09T10:02:18.612Z,55.85
2022-10-09T10:04:46.451Z,54.82
2022-10-09T10:07:15.077Z,53.77
2022-10-09T10:09:42.988Z,53.18
2022-10-09T10:12:11.616Z,53.08
2022-10-09T10:14:39.470Z,53.42
2022-10-09T10:17:07.223Z,53.95
2022-10-09T10:19:35.620Z,54.38
2022-10-09T10:22:03.523Z,55.12
2022-10-09T10:24:31.509Z,55.02
2022-10-09T10:26:59.421Z,55.26
2022-10-09T10:29:27.684Z,55.04
2022-10-09T10:31:55.369Z,53.92
2022-10-09T10:34:23.182Z,53.00
2022-10-09T10:36:51.554Z,52.01
2022-10-09T10:39:19.264Z,51.78
2022-10-09T10:41:48.053Z,52.61
2022-10-09T10:44:15.928Z,53.11
2022-10-09T10:46:44.664Z,53.30
2022-10-09T10:49:13.134Z,53.12
2022-10-09T10:51:41.438Z,53.32
2022-10-09T10:54:09.291Z,52.80
2022-10-09T10:56:37.087Z,53.04
2022-10-09T10:59:05.102Z,53.37
2022-10-09T11:01:33.808Z,53.36
2022-10-09T11:04:01.708Z,53.16
2022-10-09T11:06:29.503Z,53.28
2022-10-09T11:08:57.236Z,53.37
2022-10-09T11:11:24.966Z,53.72
2022-10-09T11:13:55.056Z,53.88
2022-10-09T11:16:22.923Z,53.60
2022-10-09T11:18:50.803Z,53.02
2022-10-09T11:21:18.762Z,51.79
2022-10-09T11:23:46.523Z,50.51
2022-10-09T11:26:14.736Z,49.63
2022-10-09T11:28:42.852Z,47.99
2022-10-09T11:31:10.737Z,46.67
2022-10-09T11:33:38.569Z,46.49
2022-10-09T11:36:06.876Z,45.37
2022-10-09T11:38:35.419Z,46.17
2022-10-09T11:41:06.581Z,45.97
2022-10-09T11:43:35.337Z,45.49
2022-10-09T11:46:03.184Z,46.12
2022-10-09T11:48:31.031Z,45.48
2022-10-09T11:50:59.676Z,45.86
2022-10-09T11:53:27.420Z,45.06
2022-10-09T11:55:55.424Z,43.56
2022-10-09T11:58:23.794Z,42.63
2022-10-09T12:00:51.644Z,42.56
2022-10-09T12:03:19.856Z,40.17
2022-10-09T12:05:47.874Z,40.53
2022-10-09T12:08:18.540Z,40.31
2022-10-09T12:10:47.663Z,40.59
2022-10-09T12:13:15.558Z,40.34
2022-10-09T12:15:43.472Z,40.71
2022-10-09T12:18:11.397Z,42.45
2022-10-09T12:20:39.694Z,43.28
2022-10-09T12:23:25.622Z,45.22
2022-10-09T12:25:55.497Z,46.63
2022-10-09T12:28:23.473Z,47.68
2022-10-09T12:30:51.449Z,47.53
2022-10-09T12:33:19.489Z,47.72
2022-10-09T12:35:47.459Z,47.58
2022-10-09T12:38:15.750Z,47.48
2022-10-09T12:40:44.049Z,47.47
2022-10-09T12:43:11.883Z,48.09
2022-10-09T12:45:39.546Z,48.84
2022-10-09T12:48:07.611Z,49.17
2022-10-09T12:50:35.850Z,49.69
2022-10-09T12:53:03.556Z,49.75
2022-10-09T12:55:31.349Z,49.89
2022-10-09T12:57:59.250Z,50.11
2022-10-09T13:00:27.133Z,50.32
2022-10-09T13:02:57.369Z,50.37
2022-10-09T13:05:25.255Z,50.52
2022-10-09T13:07:53.443Z,50.76
2022-10-09T13:10:21.368Z,50.77
2022-10-09T13:12:49.372Z,50.87
2022-10-09T13:15:19.139Z,50.80
2022-10-09T13:17:47.436Z,50.98
2022-10-09T13:20:15.433Z,51.03
2022-10-09T13:22:43.631Z,50.75
2022-10-09T13:25:11.872Z,51.05
2022-10-09T13:27:40.102Z,49.95
2022-10-09T13:30:07.830Z,49.82
2022-10-09T13:32:35.753Z,49.89
2022-10-09T13:35:03.794Z,49.60
2022-10-09T13:37:31.657Z,49.39
2022-10-09T13:39:59.927Z,49.19
2022-10-09T13:42:27.825Z,48.45
2022-10-09T13:44:55.767Z,48.64
2022-10-09T13:47:24.780Z,47.93
2022-10-09T13:49:52.827Z,46.75
2022-10-09T13:52:20.977Z,46.23
2022-10-09T13:54:48.841Z,45.36
2022-10-09T13:57:16.696Z,44.54
2022-10-09T13:59:44.914Z,44.75
2022-10-09T14:02:12.825Z,45.57
2022-10-09T14:04:41.565Z,45.63
2022-10-09T14:07:09.376Z,46.61
2022-10-09T14:09:37.548Z,46.25
2022-10-09T14:12:05.493Z,46.98
2022-10-09T14:14:33.295Z,47.21
2022-10-09T14:17:01.571Z,47.17
2022-10-09T14:19:29.503Z,47.58
2022-10-09T14:21:57.298Z,46.87
2022-10-09T14:24:25.096Z,46.11
2022-10-09T14:26:52.857Z,45.59
2022-10-09T14:29:21.211Z,45.50
2022-10-09T14:31:49.470Z,45.70
2022-10-09T14:34:17.321Z,45.15
2022-10-09T14:36:50.823Z,45.13
2022-10-09T14:39:18.659Z,45.11
2022-10-09T14:41:46.919Z,45.59
2022-10-09T14:44:14.823Z,45.64
2022-10-09T14:46:42.578Z,45.42
2022-10-09T14:49:10.400Z,45.49
2022-10-09T14:51:38.346Z,45.10
2022-10-09T14:54:07.959Z,44.73
2022-10-09T14:56:36.360Z,44.46
2022-10-09T14:59:06.039Z,44.13
2022-10-09T15:01:33.974Z,43.25
2022-10-09T15:04:01.822Z,42.93
2022-10-09T15:06:30.118Z,42.21
2022-10-09T15:09:03.053Z,41.29
2022-10-09T15:11:33.536Z,41.16
2022-10-09T15:14:01.369Z,39.54
2022-10-09T15:16:29.255Z,39.30
2022-10-09T15:18:57.899Z,39.10
2022-10-09T15:21:25.811Z,37.99
2022-10-09T15:23:53.599Z,38.11
2022-10-09T15:26:21.494Z,38.30
2022-10-09T15:28:49.251Z,38.59
2022-10-09T15:31:17.623Z,38.59
2022-10-09T15:33:45.440Z,40.75
2022-10-09T15:36:13.272Z,42.36
2022-10-09T15:38:41.212Z,44.06
2022-10-09T15:41:09.115Z,45.36
2022-10-09T15:43:39.109Z,47.38
2022-10-09T15:46:09.062Z,47.95
2022-10-09T15:48:36.923Z,49.37
2022-10-09T15:51:06.561Z,49.71
2022-10-09T15:53:34.374Z,50.89
2022-10-09T15:56:04.422Z,51.09
2022-10-09T15:58:32.232Z,51.45
2022-10-09T16:00:59.918Z,51.89
2022-10-09T16:03:29.203Z,52.58
2022-10-09T16:05:57.025Z,52.82
2022-10-09T16:08:25.279Z,53.17
2022-10-09T16:10:53.278Z,53.56
2022-10-09T16:13:21.112Z,53.86
2022-10-09T16:15:48.928Z,53.52
2022-10-09T16:18:17.220Z,54.10
2022-10-09T16:20:45.888Z,54.05
2022-10-09T16:23:13.822Z,53.91
2022-10-09T16:25:41.831Z,54.36
2022-10-09T16:28:09.803Z,54.35
2022-10-09T16:30:37.750Z,54.67
2022-10-09T16:33:09.137Z,54.98
2022-10-09T16:35:40.058Z,54.71
2022-10-09T16:38:07.853Z,54.98
2022-10-09T16:43:24.350Z,55.85
2022-10-09T16:45:52.189Z,55.95
2022-10-09T16:48:20.093Z,56.53
2022-10-09T16:50:48.033Z,56.56
2022-10-09T16:53:15.915Z,56.78
2022-10-09T16:55:44.234Z,56.80
2022-10-09T16:58:12.109Z,57.03
2022-10-09T17:00:40.432Z,57.29
2022-10-09T17:03:08.247Z,57.66
2022-10-09T17:05:36.312Z,58.04
2022-10-09T17:08:04.656Z,58.10
2022-10-09T17:10:32.579Z,58.33
2022-10-09T17:13:00.507Z,58.42
2022-10-09T17:15:28.386Z,58.71
2022-10-09T17:17:56.399Z,58.52
2022-10-09T17:20:24.681Z,58.81
2022-10-09T17:22:53.060Z,58.81
2022-10-09T17:25:20.959Z,59.17
2022-10-09T17:27:48.827Z,59.30
2022-10-09T17:30:16.613Z,59.24
2022-10-09T17:32:45.140Z,59.74
2022-10-09T17:35:13.247Z,59.31
2022-10-09T17:37:41.141Z,59.20
2022-10-09T17:40:09.121Z,59.40
2022-10-09T17:42:37.113Z,58.86
2022-10-09T17:45:07.262Z,59.20
2022-10-09T17:47:35.799Z,59.50
2022-10-09T17:50:03.735Z,59.72
2022-10-09T17:52:31.566Z,59.81
2022-10-09T17:54:59.406Z,60.30
2022-10-09T17:57:27.750Z,60.11
2022-10-09T17:59:55.740Z,60.33
2022-10-09T18:02:23.646Z,60.36
2022-10-09T18:04:51.496Z,60.09
2022-10-09T18:07:20.382Z,60.24
2022-10-09T18:09:48.897Z,60.61
2022-10-09T18:12:16.712Z,60.97
2022-10-09T18:14:44.580Z,60.65
2022-10-09T18:17:12.447Z,60.63
2022-10-09T18:19:40.333Z,60.75
2022-10-09T18:22:08.805Z,60.87
2022-10-09T18:24:36.658Z,61.47
2022-10-09T18:27:04.524Z,61.43
2022-10-09T18:29:32.807Z,61.37
2022-10-09T18:32:00.632Z,61.98
2022-10-09T18:34:29.152Z,61.91
2022-10-09T18:36:58.664Z,62.23
2022-10-09T18:39:26.458Z,61.99
2022-10-09T18:41:55.642Z,62.23
2022-10-09T18:44:24.690Z,62.08
2022-10-09T18:46:53.260Z,62.67
2022-10-09T18:49:21.116Z,62.64
2022-10-09T18:51:49.316Z,63.21
2022-10-09T18:54:18.282Z,62.83
2022-10-09T18:56:46.613Z,62.98
2022-10-09T18:59:15.002Z,62.91
2022-10-09T19:01:42.857Z,63.11
2022-10-09T19:04:10.766Z,63.19
2022-10-09T19:06:38.701Z,63.75
2022-10-09T19:09:06.604Z,63.26
2022-10-09T19:11:35.163Z,63.48
2022-10-09T19:14:03.468Z,63.44
2022-10-09T19:16:31.209Z,63.77
2022-10-09T19:18:59.080Z,63.75
2022-10-09T19:21:26.779Z,63.74
2022-10-09T19:23:55.208Z,63.71
2022-10-09T19:26:23.118Z,64.11
2022-10-09T19:28:51.055Z,63.57
2022-10-09T19:31:18.931Z,64.01
2022-10-09T19:33:46.686Z,64.39
2022-10-09T19:36:14.545Z,64.52
2022-10-09T19:38:42.324Z,64.34
2022-10-09T19:41:10.311Z,63.94
2022-10-09T19:43:38.167Z,64.30
2022-10-09T19:46:06.067Z,64.12
2022-10-09T19:48:34.754Z,64.42
2022-10-09T19:51:02.568Z,64.33
2022-10-09T19:53:30.394Z,64.40
2022-10-09T19:55:58.665Z,64.63
2022-10-09T19:58:26.488Z,64.94
2022-10-09T20:00:54.728Z,64.63
2022-10-09T20:03:22.635Z,64.89
2022-10-09T20:05:50.435Z,64.99
2022-10-09T20:08:18.404Z,64.98
2022-10-09T20:10:46.285Z,65.22
2022-10-09T20:13:15.080Z,64.88
2022-10-09T20:15:42.989Z,65.30
2022-10-09T20:18:11.221Z,64.97
2022-10-09T20:20:39.102Z,65.03
2022-10-09T20:23:07.118Z,65.25
2022-10-09T20:25:35.637Z,65.29
2022-10-09T20:28:03.552Z,65.39
2022-10-09T20:30:31.476Z,65.82
2022-10-09T20:33:00.027Z,65.15
2022-10-09T20:35:28.267Z,65.63
2022-10-09T20:37:56.934Z,65.26
2022-10-09T20:40:25.344Z,65.28
2022-10-09T20:42:53.541Z,65.68
2022-10-09T20:45:21.516Z,65.89
2022-10-09T20:47:50.584Z,65.83
2022-10-09T20:50:19.204Z,65.83
2022-10-09T20:52:47.180Z,66.01
2022-10-09T20:55:15.153Z,65.95
2022-10-09T20:57:43.019Z,65.59
2022-10-09T21:00:10.835Z,66.09
2022-10-09T21:02:40.277Z,65.88
2022-10-09T21:05:08.441Z,66.28
2022-10-09T21:07:36.192Z,66.03
2022-10-09T21:10:04.094Z,66.36
2022-10-09T21:12:31.750Z,66.33
2022-10-09T21:15:00.121Z,66.33
2022-10-09T21:17:28.218Z,66.64
2022-10-09T21:19:57.785Z,66.76
2022-10-09T21:22:25.499Z,66.75
2022-10-09T21:24:53.996Z,66.78
2022-10-09T21:27:22.319Z,66.84
2022-10-09T21:29:50.177Z,66.91
2022-10-09T21:32:18.170Z,67.14
2022-10-09T21:34:45.919Z,66.74
2022-10-09T21:37:21.421Z,67.03
2022-10-09T21:39:50.135Z,67.20
2022-10-09T21:42:17.815Z,67.10
2022-10-09T21:44:45.574Z,67.52
2022-10-09T21:47:13.843Z,67.50
2022-10-09T21:49:41.937Z,67.13
2022-10-09T21:52:10.474Z,67.21
2022-10-09T21:54:38.245Z,66.70
2022-10-09T21:57:06.034Z,67.46
2022-10-09T21:59:33.729Z,67.43
2022-10-09T22:02:01.553Z,67.44
2022-10-09T22:04:29.810Z,67.08
2022-10-09T22:06:57.473Z,67.13
2022-10-09T22:09:25.275Z,67.27
2022-10-09T22:11:53.104Z,67.21
2022-10-09T22:14:20.782Z,67.16
2022-10-09T22:16:48.971Z,67.41
2022-10-09T22:19:16.603Z,67.60
2022-10-09T22:21:44.331Z,67.91
2022-10-09T22:24:12.129Z,67.54
2022-10-09T22:26:39.753Z,67.73
2022-10-09T22:29:07.893Z,67.67
2022-10-09T22:31:36.004Z,68.20
2022-10-09T22:34:03.701Z,67.92
2022-10-09T22:36:31.292Z,67.83
2022-10-09T22:38:59.068Z,68.21
2022-10-09T22:41:27.294Z,68.00
2022-10-09T22:43:55.013Z,68.11
2022-10-09T22:46:22.694Z,67.30
2022-10-09T22:48:50.326Z,67.76
2022-10-09T22:51:17.936Z,67.44
2022-10-09T22:53:47.364Z,67.76
2022-10-09T22:56:15.035Z,67.15
2022-10-09T22:58:42.633Z,67.70
2022-10-09T23:01:10.305Z,67.63
2022-10-09T23:03:38.049Z,66.94
2022-10-09T23:06:06.226Z,66.91
2022-10-09T23:08:33.892Z,67.00
2022-10-09T23:11:01.565Z,66.99
2022-10-09T23:13:29.180Z,66.56
2022-10-09T23:15:57.240Z,66.44
2022-10-09T23:18:25.460Z,66.41
2022-10-09T23:20:53.190Z,66.13
2022-10-09T23:23:20.989Z,65.43
2022-10-09T23:25:48.688Z,65.08
2022-10-09T23:28:16.306Z,64.68
2022-10-09T23:30:44.338Z,64.06
2022-10-09T23:33:11.871Z,64.03
2022-10-09T23:35:39.470Z,64.06
2022-10-09T23:38:07.166Z,63.52
2022-10-09T23:40:34.780Z,63.14
2022-10-09T23:43:02.947Z,63.11
2022-10-09T23:45:30.565Z,62.99
2022-10-09T23:47:58.161Z,62.54
2022-10-09T23:50:25.703Z,62.90
2022-10-09T23:52:53.413Z,62.65
2022-10-09T23:55:21.725Z,62.69
2022-10-09T23:57:49.279Z,62.46
